Time;durP1;ratioP1;P1;durP2;ratioP2;P2;SDS_P1;SDS_P2;PMS_P1;PMS_P2;Temp;Humidity;BMP_temperature;BMP_pressure;BME280_temperature;BME280_humidity;BME280_pressure;Samples;Min_cycle;Max_cycle;Signal;HPM_P1;HPM_P2
2022/06/17 00:00:53;;;;;;;7.80;7.40;;;16.20;16.20;;;;;;4989612;28;20417;-68
2022/06/17 00:03:19;;;;;;;8.10;7.60;;;16.10;16.30;;;;;;4989388;28;20469;-68
2022/06/17 00:05:45;;;;;;;7.90;7.50;;;16.20;16.40;;;;;;4989633;28;20409;-68
2022/06/17 00:08:25;;;;;;;8.03;7.60;;;16.20;16.50;;;;;;4989246;28;20524;-68
2022/06/17 00:10:50;;;;;;;8.83;8.13;;;16.20;16.40;;;;;;4989426;28;20402;-66
2022/06/17 00:13:18;;;;;;;8.37;7.67;;;16.10;16.50;;;;;;4989378;28;20781;-69
2022/06/17 00:15:48;;;;;;;10.67;7.40;;;16.10;16.50;;;;;;4989408;28;20201;-68
2022/06/17 00:18:15;;;;;;;8.03;7.43;;;16.00;16.60;;;;;;4988958;28;20804;-67
2022/06/17 00:20:42;;;;;;;7.23;6.80;;;16.00;16.70;;;;;;4989305;28;20495;-67
2022/06/17 00:23:13;;;;;;;8.20;7.70;;;16.00;16.90;;;;;;4989292;28;20825;-67
2022/06/17 00:25:40;;;;;;;7.93;7.40;;;16.00;16.80;;;;;;4989362;28;20929;-68
2022/06/17 00:28:13;;;;;;;7.80;7.40;;;16.00;16.70;;;;;;4988883;28;20434;-68
2022/06/17 00:30:39;;;;;;;7.83;7.40;;;15.90;17.00;;;;;;4989297;28;20791;-68
2022/06/17 00:33:06;;;;;;;8.50;8.00;;;15.90;17.00;;;;;;4989150;28;20410;-67
2022/06/17 00:35:35;;;;;;;8.43;7.93;;;15.90;16.90;;;;;;4989144;28;20451;-68
2022/06/17 00:38:02;;;;;;;8.00;7.60;;;15.90;17.00;;;;;;4988614;28;20456;-68
2022/06/17 00:40:30;;;;;;;7.93;7.47;;;15.90;17.00;;;;;;4988984;28;20500;-68
2022/06/17 00:42:56;;;;;;;8.80;8.20;;;15.90;17.00;;;;;;4988710;28;20464;-67
2022/06/17 00:45:29;;;;;;;6.73;6.43;;;15.90;17.10;;;;;;4988977;28;20446;-68
2022/06/17 00:48:02;;;;;;;8.63;8.07;;;15.80;17.10;;;;;;4988715;28;20438;-66
2022/06/17 00:50:37;;;;;;;8.20;7.63;;;15.80;17.10;;;;;;4988973;28;20814;-68
2022/06/17 00:53:23;;;;;;;7.37;6.97;;;15.70;17.50;;;;;;4989291;28;20493;-68
2022/06/17 00:55:55;;;;;;;6.93;6.57;;;15.60;17.90;;;;;;4989089;28;20419;-68
2022/06/17 00:58:24;;;;;;;6.83;6.43;;;15.60;17.90;;;;;;4988542;28;20435;-68
2022/06/17 01:00:54;;;;;;;6.63;6.23;;;15.60;17.90;;;;;;4988876;28;20994;-68
2022/06/17 01:03:24;;;;;;;6.90;6.50;;;15.50;17.90;;;;;;4988721;28;20466;-68
2022/06/17 01:05:54;;;;;;;7.10;6.70;;;15.50;17.80;;;;;;4988846;28;20819;-68
2022/06/17 01:11:14;;;;;;;7.80;7.10;;;15.40;17.80;;;;;;4991925;28;20462;-68
2022/06/17 01:13:42;;;;;;;6.73;6.20;;;15.40;17.80;;;;;;4992058;28;20897;-69
2022/06/17 01:16:08;;;;;;;6.43;6.03;;;15.40;18.00;;;;;;4991868;28;20552;-68
2022/06/17 01:18:38;;;;;;;6.03;5.73;;;15.20;18.50;;;;;;4991646;28;20428;-68
2022/06/17 01:21:14;;;;;;;6.70;6.30;;;15.20;18.60;;;;;;4991872;28;20807;-68
2022/06/17 01:23:39;;;;;;;6.00;5.60;;;15.10;18.60;;;;;;4991890;28;20421;-68
2022/06/17 01:26:05;;;;;;;6.50;6.00;;;15.10;18.90;;;;;;4990368;28;20419;-68
2022/06/17 01:28:30;;;;;;;5.93;5.53;;;15.10;19.30;;;;;;4990164;28;20201;-68
2022/06/17 01:31:00;;;;;;;5.80;5.40;;;15.10;19.20;;;;;;4991946;28;20208;-68
2022/06/17 01:33:30;;;;;;;6.43;5.97;;;15.10;19.30;;;;;;4991919;28;20182;-69
2022/06/17 01:36:10;;;;;;;6.00;5.50;;;15.00;19.50;;;;;;4991712;28;20491;-68
2022/06/17 01:38:38;;;;;;;6.23;5.90;;;15.00;19.60;;;;;;4991348;28;20463;-69
2022/06/17 01:41:04;;;;;;;6.10;5.33;;;15.00;19.80;;;;;;4991598;28;20498;-69
2022/06/17 01:44:03;;;;;;;6.13;5.73;;;14.90;19.70;;;;;;4991435;28;20504;-68
2022/06/17 01:46:38;;;;;;;7.07;6.00;;;14.90;19.90;;;;;;4991537;28;20452;-67
2022/06/17 01:49:14;;;;;;;5.63;5.23;;;14.80;20.00;;;;;;4991123;28;20431;-68
2022/06/17 01:51:45;;;;;;;5.07;4.77;;;14.80;19.80;;;;;;4991416;28;20418;-68
2022/06/17 01:54:18;;;;;;;5.27;4.63;;;14.80;19.90;;;;;;4991818;28;20826;-69
2022/06/17 01:56:45;;;;;;;10.23;5.40;;;14.70;20.20;;;;;;4991964;28;20923;-68
2022/06/17 01:59:18;;;;;;;6.50;6.00;;;14.70;20.10;;;;;;4991153;28;20435;-69
2022/06/17 02:01:47;;;;;;;6.03;5.57;;;14.70;20.20;;;;;;4991359;28;20455;-68
2022/06/17 02:04:25;;;;;;;6.47;5.97;;;14.80;20.30;;;;;;4991225;28;20416;-69
2022/06/17 02:06:57;;;;;;;5.93;5.47;;;14.70;20.40;;;;;;4991389;28;20416;-68
2022/06/17 02:09:23;;;;;;;5.50;5.00;;;14.70;20.50;;;;;;4991063;28;20416;-68
2022/06/17 02:11:49;;;;;;;6.23;5.67;;;14.60;20.70;;;;;;4991307;28;20760;-69
2022/06/17 02:14:15;;;;;;;5.53;5.00;;;14.50;20.70;;;;;;4991157;28;20651;-69
2022/06/17 02:16:45;;;;;;;5.63;5.13;;;14.40;20.70;;;;;;4991234;28;20829;-68
2022/06/17 02:19:11;;;;;;;7.17;6.47;;;14.40;20.80;;;;;;4991090;28;20799;-68
2022/06/17 02:21:48;;;;;;;5.20;4.80;;;14.40;20.70;;;;;;4989898;28;20491;-69
2022/06/17 02:24:15;;;;;;;4.97;4.67;;;14.40;20.50;;;;;;4991222;28;20427;-69
2022/06/17 02:26:43;;;;;;;4.93;4.53;;;14.40;20.60;;;;;;4991285;28;20412;-69
2022/06/17 02:29:11;;;;;;;5.17;4.83;;;14.40;21.40;;;;;;4990626;28;20589;-68
2022/06/17 02:31:40;;;;;;;5.70;5.20;;;14.40;20.90;;;;;;4990995;28;20509;-69
2022/06/17 02:34:09;;;;;;;4.73;4.43;;;14.40;21.20;;;;;;4990928;28;20499;-68
2022/06/17 02:36:44;;;;;;;6.53;4.73;;;14.40;21.00;;;;;;4991059;28;20471;-68
2022/06/17 02:39:13;;;;;;;5.00;4.50;;;14.30;21.30;;;;;;4990377;28;21031;-69
2022/06/17 02:41:40;;;;;;;4.80;4.40;;;14.30;21.30;;;;;;4990557;28;20470;-68
2022/06/17 02:44:21;;;;;;;5.47;5.07;;;14.20;21.20;;;;;;4990799;28;20416;-69
2022/06/17 02:46:49;;;;;;;5.00;4.70;;;14.10;21.20;;;;;;4989610;28;20445;-67
2022/06/17 02:49:25;;;;;;;4.13;3.83;;;14.10;21.70;;;;;;4990282;28;20472;-69
2022/06/17 02:51:51;;;;;;;4.70;4.20;;;14.00;21.60;;;;;;4990654;28;20409;-68
2022/06/17 02:54:35;;;;;;;5.70;5.20;;;14.10;21.70;;;;;;4990418;28;20977;-68
2022/06/17 02:57:02;;;;;;;4.20;3.63;;;14.00;22.50;;;;;;4990552;28;20280;-68
2022/06/17 02:59:34;;;;;;;6.27;4.57;;;13.90;22.00;;;;;;4990184;28;20423;-68
2022/06/17 03:02:12;;;;;;;7.30;4.60;;;13.90;22.30;;;;;;4990458;28;20489;-68
2022/06/17 03:04:41;;;;;;;6.53;5.40;;;13.90;22.10;;;;;;4990307;28;20412;-68
2022/06/17 03:07:15;;;;;;;8.10;5.10;;;13.90;22.00;;;;;;4990306;28;20413;-69
2022/06/17 03:09:41;;;;;;;5.17;4.77;;;13.90;22.10;;;;;;4988959;28;20934;-68
2022/06/17 03:12:19;;;;;;;4.83;4.47;;;13.90;22.10;;;;;;4990284;28;20466;-68
2022/06/17 03:15:02;;;;;;;7.33;4.57;;;14.00;22.00;;;;;;4990343;28;20667;-68
2022/06/17 03:17:29;;;;;;;4.80;4.40;;;14.00;21.70;;;;;;4990141;28;20795;-67
2022/06/17 03:19:58;;;;;;;5.00;4.60;;;14.00;21.80;;;;;;4989895;28;20774;-69
2022/06/17 03:22:25;;;;;;;4.93;4.53;;;13.90;21.30;;;;;;4989978;28;20452;-67
2022/06/17 03:25:07;;;;;;;5.33;5.03;;;14.00;21.30;;;;;;4990068;28;20478;-68
2022/06/17 03:27:51;;;;;;;5.30;4.90;;;14.00;21.10;;;;;;4990001;28;20486;-68
2022/06/17 03:30:24;;;;;;;5.90;5.40;;;14.10;21.20;;;;;;4989793;28;20418;-68
2022/06/17 03:33:01;;;;;;;9.83;4.90;;;14.20;21.20;;;;;;4989726;28;20454;-69
2022/06/17 03:35:31;;;;;;;7.17;5.30;;;14.30;21.00;;;;;;4990003;28;20419;-68
2022/06/17 03:38:12;;;;;;;5.87;5.00;;;14.40;20.70;;;;;;4990048;28;20512;-67
2022/06/17 03:40:43;;;;;;;6.03;5.40;;;14.50;20.70;;;;;;4990042;28;20420;-68
2022/06/17 03:43:15;;;;;;;5.63;5.23;;;14.50;20.30;;;;;;4990017;28;20551;-68
2022/06/17 03:45:53;;;;;;;5.57;5.07;;;14.60;20.50;;;;;;4989921;28;20417;-69
2022/06/17 03:48:29;;;;;;;6.40;5.90;;;14.60;20.50;;;;;;4989445;28;20447;-68
2022/06/17 03:50:55;;;;;;;5.83;5.40;;;14.60;20.60;;;;;;4989756;28;20456;-68
2022/06/17 03:53:29;;;;;;;5.80;5.40;;;14.70;20.50;;;;;;4989803;28;20809;-68
2022/06/17 03:55:59;;;;;;;6.20;5.80;;;14.70;20.20;;;;;;4989733;28;20416;-68
2022/06/17 03:58:25;;;;;;;5.53;5.23;;;14.70;20.00;;;;;;4989350;28;20533;-69
2022/06/17 04:01:08;;;;;;;6.43;5.93;;;14.70;20.10;;;;;;4989595;28;20424;-68
2022/06/17 04:03:37;;;;;;;5.80;5.50;;;14.80;20.00;;;;;;4989488;28;20468;-68
2022/06/17 04:06:08;;;;;;;8.23;5.80;;;14.70;20.10;;;;;;4989638;28;20424;-69
2022/06/17 04:08:49;;;;;;;11.23;4.83;;;14.40;21.00;;;;;;4989215;28;20428;-69
2022/06/17 04:11:14;;;;;;;5.70;5.40;;;14.60;20.80;;;;;;4988310;28;20434;-69
2022/06/17 04:13:41;;;;;;;6.03;5.63;;;14.80;20.30;;;;;;4989661;28;20431;-68
2022/06/17 04:16:38;;;;;;;6.00;5.50;;;14.90;19.80;;;;;;4988259;28;20234;-69
2022/06/17 04:19:16;;;;;;;5.90;5.50;;;15.10;19.80;;;;;;4989162;28;20489;-69
2022/06/17 04:21:42;;;;;;;6.30;5.90;;;15.20;19.20;;;;;;4989314;28;20456;-68
2022/06/17 04:24:14;;;;;;;6.90;6.50;;;15.30;19.00;;;;;;4989357;28;20788;-68
2022/06/17 04:26:42;;;;;;;7.17;6.57;;;15.40;18.90;;;;;;4988106;28;20219;-69
2022/06/17 04:29:15;;;;;;;7.53;7.03;;;15.50;18.30;;;;;;4989366;28;20890;-68
2022/06/17 04:31:43;;;;;;;6.37;6.07;;;15.70;18.00;;;;;;4989309;28;20419;-68
2022/06/17 04:34:17;;;;;;;7.53;6.87;;;15.70;18.20;;;;;;4989198;28;20907;-69
2022/06/17 04:36:59;;;;;;;7.03;6.63;;;15.70;18.00;;;;;;4989143;28;20421;-68
2022/06/17 04:39:33;;;;;;;7.43;6.97;;;15.80;18.00;;;;;;4989137;28;20422;-69
2022/06/17 04:42:03;;;;;;;8.03;7.53;;;16.00;18.20;;;;;;4989246;28;20462;-68
2022/06/17 04:44:29;;;;;;;7.80;7.30;;;16.10;18.20;;;;;;4989585;28;20422;-68
2022/06/17 04:47:00;;;;;;;7.67;7.07;;;16.20;18.00;;;;;;4992237;28;20414;-69
2022/06/17 04:49:29;;;;;;;7.17;6.77;;;16.30;17.50;;;;;;4992020;28;20222;-68
2022/06/17 04:52:02;;;;;;;7.60;7.20;;;16.50;18.40;;;;;;4992242;28;20423;-68
2022/06/17 04:54:29;;;;;;;9.37;8.67;;;17.30;17.30;;;;;;4992359;28;20431;-66
2022/06/17 04:56:58;;;;;;;10.13;9.63;;;18.30;15.40;;;;;;4992130;28;20428;-69
2022/06/17 04:59:36;;;;;;;11.20;10.10;;;19.10;13.60;;;;;;4990715;28;20423;-70
2022/06/17 05:02:09;;;;;;;11.10;10.60;;;19.90;12.00;;;;;;4992142;28;20458;-68
2022/06/17 05:04:34;;;;;;;13.30;12.60;;;20.60;10.30;;;;;;4992239;28;20914;-68
2022/06/17 05:07:00;;;;;;;11.70;11.20;;;21.10;8.90;;;;;;4992015;28;20518;-68
2022/06/17 05:09:42;;;;;;;12.47;11.87;;;21.40;9.50;;;;;;4992415;28;20264;-68
2022/06/17 05:12:20;;;;;;;12.30;11.77;;;22.10;9.00;;;;;;4990845;28;20609;-68
2022/06/17 05:15:06;;;;;;;13.23;12.63;;;22.90;7.80;;;;;;4992026;28;20420;-68
2022/06/17 05:17:32;;;;;;;13.43;12.83;;;23.80;5.80;;;;;;4992104;28;20781;-68
2022/06/17 05:19:58;;;;;;;12.47;11.87;;;24.30;5.30;;;;;;4991644;28;20434;-68
2022/06/17 05:22:36;;;;;;;13.40;12.90;;;24.90;5.40;;;;;;4991952;28;20471;-68
2022/06/17 05:25:06;;;;;;;14.27;13.57;;;25.70;4.00;;;;;;4992301;28;20208;-68
2022/06/17 05:27:32;;;;;;;14.70;14.10;;;26.60;3.10;;;;;;4992164;28;20471;-68
2022/06/17 05:29:58;;;;;;;14.60;13.90;;;27.60;2.30;;;;;;4991933;28;20452;-68
2022/06/17 05:32:23;;;;;;;15.60;14.83;;;28.30;1.00;;;;;;4991754;28;20420;-68
2022/06/17 05:34:49;;;;;;;16.63;15.63;;;29.00;1.00;;;;;;4991730;28;20185;-68
2022/06/17 05:37:15;;;;;;;14.90;14.20;;;29.70;1.00;;;;;;4991880;28;20232;-69
2022/06/17 05:39:41;;;;;;;15.33;14.63;;;30.70;1.00;;;;;;4991438;28;20581;-69
2022/06/17 05:42:09;;;;;;;15.17;14.37;;;31.50;1.00;;;;;;4991656;28;20554;-68
2022/06/17 05:44:34;;;;;;;16.87;15.17;;;32.40;1.00;;;;;;4991623;28;20177;-68
2022/06/17 05:47:00;;;;;;;14.73;14.13;;;33.30;1.00;;;;;;4991437;28;20416;-69
2022/06/17 05:49:25;;;;;;;15.23;14.53;;;33.90;1.00;;;;;;4991169;28;20656;-68
2022/06/17 05:51:51;;;;;;;15.80;14.50;;;34.60;1.00;;;;;;4990236;28;20209;-69
2022/06/17 05:54:17;;;;;;;16.00;15.30;;;34.80;1.00;;;;;;4991505;28;20177;-69
2022/06/17 05:56:42;;;;;;;16.10;15.13;;;35.30;1.00;;;;;;4991113;28;20530;-70
2022/06/17 05:59:10;;;;;;;16.00;15.30;;;35.80;1.00;;;;;;4991198;28;20204;-70
2022/06/17 06:01:36;;;;;;;15.37;14.60;;;36.70;1.00;;;;;;4991386;28;20176;-70
2022/06/17 06:04:01;;;;;;;16.73;15.93;;;37.00;1.00;;;;;;4991496;28;20427;-70
2022/06/17 06:06:27;;;;;;;16.27;15.57;;;37.20;1.00;;;;;;4991570;28;20180;-69
2022/06/17 06:08:52;;;;;;;15.43;14.70;;;37.20;1.00;;;;;;4990891;28;20197;-69
2022/06/17 06:11:18;;;;;;;15.57;14.97;;;37.40;1.00;;;;;;4991141;28;20183;-68
2022/06/17 06:13:44;;;;;;;14.77;14.20;;;37.40;1.00;;;;;;4991290;28;20274;-69
2022/06/17 06:16:10;;;;;;;21.00;16.87;;;37.40;1.00;;;;;;4991190;28;20234;-69
2022/06/17 06:18:39;;;;;;;15.90;15.20;;;37.90;1.00;;;;;;4990740;28;20436;-69
2022/06/17 06:21:05;;;;;;;16.47;15.77;;;38.20;1.00;;;;;;4991251;28;20540;-68
2022/06/17 06:23:33;;;;;;;16.23;15.37;;;37.50;1.00;;;;;;4991010;28;20499;-68
2022/06/17 06:25:58;;;;;;;15.83;15.10;;;37.50;1.00;;;;;;4989658;28;20428;-68
2022/06/17 06:28:26;;;;;;;15.37;14.77;;;37.50;1.00;;;;;;4990762;28;20436;-68
2022/06/17 06:30:55;;;;;;;14.43;13.83;;;37.80;1.00;;;;;;4990913;28;20181;-68
2022/06/17 06:33:20;;;;;;;16.00;15.30;;;37.70;1.00;;;;;;4989838;28;20440;-70
2022/06/17 06:35:46;;;;;;;15.20;14.60;;;38.10;1.00;;;;;;4991344;28;20793;-70
2022/06/17 06:38:12;;;;;;;16.77;15.87;;;38.20;1.00;;;;;;4990751;28;20225;-70
2022/06/17 06:40:37;;;;;;;15.10;14.40;;;38.30;1.00;;;;;;4989728;28;20192;-70
2022/06/17 06:43:03;;;;;;;14.90;14.30;;;38.70;1.00;;;;;;4991105;28;20471;-70
2022/06/17 06:45:33;;;;;;;14.63;14.03;;;39.20;1.00;;;;;;4991197;28;20173;-70
2022/06/17 06:48:01;;;;;;;15.20;14.50;;;39.70;1.00;;;;;;4990897;28;20582;-68
2022/06/17 06:50:29;;;;;;;15.73;14.90;;;39.90;1.00;;;;;;4991048;28;20415;-70
2022/06/17 06:52:55;;;;;;;15.17;14.57;;;39.70;1.00;;;;;;4990850;28;20441;-70
2022/06/17 06:55:21;;;;;;;15.30;14.70;;;39.00;1.00;;;;;;4991348;28;20454;-70
2022/06/17 06:57:51;;;;;;;15.40;14.80;;;38.20;1.00;;;;;;4990561;28;20279;-70
2022/06/17 07:00:20;;;;;;;15.83;14.93;;;37.40;1.00;;;;;;4990341;28;20424;-70
2022/06/17 07:02:46;;;;;;;16.20;15.30;;;36.50;1.00;;;;;;4990247;28;20464;-70
2022/06/17 07:05:12;;;;;;;15.50;14.80;;;35.20;1.00;;;;;;4990374;28;20446;-69
2022/06/17 07:07:39;;;;;;;15.40;14.80;;;34.40;1.00;;;;;;4989399;28;20188;-69
2022/06/17 07:10:06;;;;;;;16.20;15.37;;;33.60;1.00;;;;;;4990061;28;20255;-69
2022/06/17 07:12:32;;;;;;;15.67;14.97;;;33.50;1.00;;;;;;4990200;28;20810;-68
2022/06/17 07:14:57;;;;;;;16.90;15.90;;;33.70;1.00;;;;;;4989074;28;20424;-69
2022/06/17 07:17:23;;;;;;;15.87;15.17;;;33.30;1.00;;;;;;4990214;28;20272;-70
2022/06/17 07:19:48;;;;;;;15.50;14.90;;;33.00;1.00;;;;;;4989836;28;20233;-68
2022/06/17 07:22:14;;;;;;;15.70;15.07;;;33.20;1.00;;;;;;4990276;28;20204;-68
2022/06/17 07:24:39;;;;;;;15.93;15.13;;;33.80;1.00;;;;;;4990670;28;20547;-69
2022/06/17 07:27:05;;;;;;;15.33;14.67;;;34.10;1.00;;;;;;4989930;28;20183;-67
2022/06/17 07:29:30;;;;;;;15.97;15.30;;;33.20;1.00;;;;;;4989900;28;20251;-68
2022/06/17 07:31:56;;;;;;;15.97;15.23;;;33.50;1.00;;;;;;4989971;28;20202;-67
2022/06/17 07:34:21;;;;;;;15.83;15.23;;;32.70;1.00;;;;;;4990143;28;20268;-69
2022/06/17 07:42:15;;;;;;;16.97;15.77;;;35.40;1.00;;;;;;4989882;28;20847;-69
2022/06/17 07:44:41;;;;;;;16.43;15.73;;;35.40;1.00;;;;;;4990128;28;20408;-68
2022/06/17 07:47:12;;;;;;;16.80;16.00;;;35.50;1.00;;;;;;4990114;28;20173;-68
2022/06/17 07:49:38;;;;;;;15.70;14.90;;;35.20;1.00;;;;;;4989861;28;20177;-69
2022/06/17 07:52:04;;;;;;;16.07;15.27;;;35.50;1.00;;;;;;4990065;28;20499;-69
2022/06/17 07:54:30;;;;;;;15.20;14.50;;;35.90;1.00;;;;;;4989841;28;20964;-69
2022/06/17 07:56:55;;;;;;;15.27;14.67;;;36.40;1.00;;;;;;4989633;28;20204;-68
2022/06/17 07:59:21;;;;;;;16.27;15.57;;;36.50;1.00;;;;;;4989606;28;20208;-69
2022/06/17 08:01:47;;;;;;;16.57;15.90;;;36.60;1.00;;;;;;4989713;28;20212;-69
2022/06/17 08:04:12;;;;;;;16.83;15.80;;;36.90;1.00;;;;;;4989723;28;20182;-70
2022/06/17 08:06:38;;;;;;;16.27;15.67;;;37.20;1.00;;;;;;4988307;28;20181;-69
2022/06/17 08:09:03;;;;;;;15.70;14.90;;;37.40;1.00;;;;;;4989346;28;20565;-69
2022/06/17 08:11:29;;;;;;;16.20;15.47;;;36.60;1.00;;;;;;4989558;28;20235;-68
2022/06/17 08:13:55;;;;;;;16.20;15.50;;;33.50;1.00;;;;;;4989384;28;20519;-69
2022/06/17 08:16:20;;;;;;;15.40;14.80;;;32.30;1.00;;;;;;4989548;28;20212;-69
2022/06/17 08:18:46;;;;;;;15.43;14.83;;;32.00;1.00;;;;;;4989231;28;20204;-70
2022/06/17 08:21:12;;;;;;;17.50;16.30;;;31.90;1.00;;;;;;4992432;28;20259;-68
2022/06/17 08:23:38;;;;;;;15.90;15.20;;;32.50;1.00;;;;;;4992957;28;20205;-69
2022/06/17 08:26:04;;;;;;;15.00;14.40;;;31.60;1.00;;;;;;4993010;28;20408;-69
2022/06/17 08:28:29;;;;;;;15.87;15.10;;;31.20;1.00;;;;;;4992514;28;20440;-69
2022/06/17 08:30:56;;;;;;;16.33;15.30;;;32.00;1.00;;;;;;4992810;28;20207;-70
2022/06/17 08:33:29;;;;;;;16.33;15.63;;;32.60;1.00;;;;;;4992763;28;20216;-69
2022/06/17 08:35:59;;;;;;;15.67;15.00;;;32.60;1.00;;;;;;4992664;28;20419;-69
2022/06/17 08:38:28;;;;;;;16.30;15.70;;;31.70;1.00;;;;;;4992335;28;20463;-69
2022/06/17 08:40:54;;;;;;;15.90;15.30;;;31.70;1.00;;;;;;4992468;28;20890;-68
2022/06/17 08:43:38;;;;;;;15.83;15.13;;;31.00;1.00;;;;;;4992631;28;20463;-69
2022/06/17 08:46:28;;;;;;;15.50;14.90;;;30.20;1.00;;;;;;4992756;28;20176;-68
2022/06/17 08:49:06;;;;;;;15.63;15.03;;;30.30;1.00;;;;;;4992413;28;20431;-68
2022/06/17 08:52:09;;;;;;;15.73;15.03;;;30.00;1.00;;;;;;4992627;28;20403;-68
2022/06/17 08:55:12;;;;;;;15.63;14.70;;;29.20;1.00;;;;;;4992629;28;20499;-68
2022/06/17 08:57:56;;;;;;;16.13;15.43;;;29.70;1.00;;;;;;4992634;28;20849;-68
2022/06/17 09:00:35;;;;;;;15.43;14.83;;;28.90;1.00;;;;;;4992360;28;20431;-68
2022/06/17 09:03:20;;;;;;;15.27;14.57;;;27.80;1.00;;;;;;4992544;28;20818;-68
2022/06/17 09:05:48;;;;;;;15.20;14.50;;;27.90;1.00;;;;;;4992369;28;20414;-68
2022/06/17 09:08:29;;;;;;;14.87;14.27;;;26.90;1.00;;;;;;4992098;28;20432;-69
2022/06/17 09:11:22;;;;;;;15.17;13.80;;;26.80;1.00;;;;;;4992360;28;20423;-68
2022/06/17 09:14:03;;;;;;;15.77;14.87;;;26.70;1.00;;;;;;4992172;28;20415;-68
2022/06/17 09:17:07;;;;;;;15.47;14.70;;;26.80;1.00;;;;;;4992315;28;20470;-68
2022/06/17 09:19:35;;;;;;;15.70;15.00;;;25.90;1.00;;;;;;4983707;28;20439;-68
2022/06/17 09:22:24;;;;;;;14.30;13.80;;;26.10;1.00;;;;;;4992849;28;20471;-68
2022/06/17 09:24:53;;;;;;;16.33;15.53;;;25.80;1.00;;;;;;4983201;28;20918;-69
2022/06/17 09:27:26;;;;;;;14.63;14.03;;;26.00;1.00;;;;;;4992011;28;20482;-69
2022/06/17 09:30:00;;;;;;;14.37;13.57;;;26.10;1.00;;;;;;4991330;28;20419;-69
2022/06/17 09:32:41;;;;;;;15.23;14.50;;;26.10;1.00;;;;;;4990873;28;20432;-68
2022/06/17 09:35:18;;;;;;;14.60;14.00;;;26.20;1.00;;;;;;4992027;28;20922;-68
2022/06/17 09:37:54;;;;;;;14.23;13.63;;;25.90;1.00;;;;;;4992449;28;20516;-68
2022/06/17 09:40:26;;;;;;;14.40;13.80;;;25.80;1.00;;;;;;4990639;28;20459;-68
2022/06/17 09:43:06;;;;;;;14.67;14.10;;;25.70;1.00;;;;;;4992249;28;20459;-68
2022/06/17 09:45:40;;;;;;;14.17;13.57;;;25.20;1.00;;;;;;4991979;28;20420;-68
2022/06/17 09:48:15;;;;;;;15.17;14.47;;;25.00;1.00;;;;;;4991429;28;20796;-67
2022/06/17 09:50:46;;;;;;;14.20;13.60;;;25.40;1.00;;;;;;4991638;28;20411;-68
2022/06/17 09:53:19;;;;;;;14.50;13.90;;;25.40;1.00;;;;;;4991670;28;20412;-68
2022/06/17 09:55:52;;;;;;;14.40;13.90;;;25.50;1.00;;;;;;4991947;28;20809;-68
2022/06/17 09:58:36;;;;;;;14.80;14.10;;;25.40;1.00;;;;;;4991308;28;20447;-68
2022/06/17 10:01:03;;;;;;;14.00;13.50;;;25.60;1.00;;;;;;4991624;28;20805;-68
2022/06/17 10:03:34;;;;;;;15.30;14.60;;;25.10;1.00;;;;;;4991508;28;20977;-68
2022/06/17 10:06:23;;;;;;;15.50;14.70;;;25.30;1.00;;;;;;4991542;28;20451;-68
2022/06/17 10:09:14;;;;;;;13.90;13.40;;;25.50;1.00;;;;;;4991251;28;20942;-68
2022/06/17 10:11:47;;;;;;;14.30;13.70;;;25.50;1.00;;;;;;4991398;28;20500;-68
2022/06/17 10:14:28;;;;;;;15.00;14.40;;;25.20;1.00;;;;;;4991132;28;20415;-68
2022/06/17 10:20:18;;;;;;;14.57;14.03;;;25.00;1.00;;;;;;4991083;28;20416;-67
2022/06/17 10:23:01;;;;;;;14.87;14.27;;;25.20;1.00;;;;;;4991103;28;20566;-67
2022/06/17 10:25:50;;;;;;;13.90;13.20;;;25.00;1.00;;;;;;4991105;28;20420;-68
2022/06/17 10:28:30;;;;;;;14.87;14.17;;;25.10;1.00;;;;;;4990131;28;20486;-67
2022/06/17 10:31:00;;;;;;;14.27;13.77;;;25.00;1.00;;;;;;4990968;28;20422;-68
2022/06/17 10:33:31;;;;;;;14.07;13.57;;;25.30;1.00;;;;;;4990790;28;20450;-67
2022/06/17 10:35:57;;;;;;;14.40;13.80;;;25.60;1.00;;;;;;4990862;28;20548;-68
2022/06/17 10:38:31;;;;;;;14.80;14.17;;;25.40;1.00;;;;;;4990461;28;20455;-68
2022/06/17 10:40:58;;;;;;;15.23;14.63;;;25.40;1.00;;;;;;4990751;28;20771;-68
2022/06/17 10:43:32;;;;;;;14.37;13.87;;;25.50;1.00;;;;;;4989776;28;20502;-68
2022/06/17 10:45:59;;;;;;;14.20;13.60;;;25.40;1.00;;;;;;4990825;28;20415;-68
2022/06/17 10:48:43;;;;;;;14.30;13.80;;;25.50;1.00;;;;;;4990938;28;20467;-68
2022/06/17 10:51:09;;;;;;;14.60;13.53;;;25.60;1.00;;;;;;4990546;28;20416;-68
2022/06/17 10:53:46;;;;;;;14.70;14.10;;;25.80;1.00;;;;;;4990631;28;20420;-68
2022/06/17 10:56:24;;;;;;;14.70;13.80;;;26.00;1.00;;;;;;4990581;28;20476;-68
2022/06/17 10:59:01;;;;;;;14.70;14.00;;;25.90;1.00;;;;;;4990235;28;20815;-68
2022/06/17 11:01:49;;;;;;;14.10;13.50;;;26.00;1.00;;;;;;4990605;28;20415;-68
2022/06/17 11:04:25;;;;;;;14.73;14.03;;;26.00;1.00;;;;;;4990552;28;20988;-68
2022/06/17 11:07:28;;;;;;;15.10;14.50;;;26.10;1.00;;;;;;4990388;28;20408;-68
2022/06/17 11:09:57;;;;;;;14.43;13.83;;;26.20;1.00;;;;;;4990000;28;20400;-68
2022/06/17 11:12:52;;;;;;;16.90;14.47;;;26.10;1.00;;;;;;4990495;28;20469;-68
2022/06/17 11:15:45;;;;;;;15.33;14.57;;;26.10;1.00;;;;;;4983702;28;20426;-68
2022/06/17 11:18:25;;;;;;;15.03;14.27;;;26.10;1.00;;;;;;4989884;28;20424;-68
2022/06/17 11:21:04;;;;;;;14.33;13.73;;;26.30;1.00;;;;;;4990293;28;20772;-68
2022/06/17 11:23:34;;;;;;;15.30;14.50;;;26.10;1.00;;;;;;4990102;28;20974;-68
2022/06/17 11:26:19;;;;;;;14.80;14.20;;;26.20;1.00;;;;;;4990093;28;20416;-68
2022/06/17 11:29:15;;;;;;;15.63;15.00;;;26.20;1.00;;;;;;4989589;28;20466;-68
2022/06/17 11:31:45;;;;;;;14.47;13.87;;;26.10;1.00;;;;;;4989818;28;20453;-67
2022/06/17 11:34:17;;;;;;;16.07;14.80;;;26.30;1.00;;;;;;4990119;28;20473;-68
2022/06/17 11:36:58;;;;;;;13.80;13.30;;;26.40;1.00;;;;;;4989902;28;20433;-68
2022/06/17 11:39:36;;;;;;;14.60;14.00;;;26.30;1.00;;;;;;4988312;28;20431;-68
2022/06/17 11:42:18;;;;;;;14.53;13.93;;;26.40;1.00;;;;;;4989609;28;20850;-68
2022/06/17 11:44:55;;;;;;;13.80;13.30;;;26.40;1.00;;;;;;4990120;28;20487;-68
2022/06/17 11:47:24;;;;;;;14.07;13.57;;;26.50;1.00;;;;;;4989811;28;20569;-68
2022/06/17 11:49:52;;;;;;;14.50;14.00;;;26.60;1.00;;;;;;4989624;28;20786;-67
2022/06/17 11:52:32;;;;;;;14.63;14.13;;;26.40;1.00;;;;;;4990006;28;20427;-68
2022/06/17 11:54:57;;;;;;;13.83;13.33;;;26.40;1.00;;;;;;4989507;28;20408;-68
2022/06/17 11:57:29;;;;;;;14.40;13.80;;;26.60;1.00;;;;;;4989411;28;21026;-68
2022/06/17 11:59:58;;;;;;;14.80;14.10;;;26.30;1.00;;;;;;4989216;28;20230;-68
2022/06/17 12:02:24;;;;;;;13.60;13.10;;;26.40;1.00;;;;;;4989423;28;20459;-68
2022/06/17 12:05:09;;;;;;;13.50;13.00;;;26.00;1.00;;;;;;4989657;28;20422;-69
2022/06/17 12:07:38;;;;;;;15.10;14.50;;;26.30;1.00;;;;;;4989432;28;20432;-69
2022/06/17 12:10:33;;;;;;;14.57;14.00;;;26.70;1.00;;;;;;4989242;28;20408;-69
2022/06/17 12:13:11;;;;;;;14.23;13.67;;;26.60;1.00;;;;;;4989405;28;20423;-68
2022/06/17 12:15:42;;;;;;;14.70;14.00;;;26.70;1.00;;;;;;4989452;28;20431;-68
2022/06/17 12:18:32;;;;;;;13.80;13.20;;;26.60;1.00;;;;;;4988970;28;20781;-68
2022/06/17 12:21:40;;;;;;;13.97;13.47;;;26.60;1.00;;;;;;4988646;28;20423;-68
2022/06/17 12:24:24;;;;;;;14.40;13.90;;;26.60;1.00;;;;;;4981052;28;20834;-68
2022/06/17 12:27:01;;;;;;;14.10;13.50;;;26.80;1.00;;;;;;4989219;28;20473;-68
2022/06/17 12:29:43;;;;;;;15.07;14.43;;;26.90;1.00;;;;;;4989405;28;20961;-69
2022/06/17 12:32:15;;;;;;;14.10;13.60;;;27.00;1.00;;;;;;4989233;28;20759;-67
2022/06/17 12:35:10;;;;;;;14.03;13.43;;;27.10;1.00;;;;;;4989019;28;20443;-68
2022/06/17 12:37:44;;;;;;;14.30;13.80;;;27.00;1.00;;;;;;4988779;28;20485;-68
2022/06/17 12:40:24;;;;;;;14.07;13.50;;;27.10;1.00;;;;;;4988805;28;20407;-69
2022/06/17 12:42:54;;;;;;;14.70;13.87;;;27.20;1.00;;;;;;4989099;28;20509;-68
2022/06/17 12:45:26;;;;;;;14.00;13.50;;;27.30;1.00;;;;;;4987617;28;20427;-68
2022/06/17 12:48:12;;;;;;;13.77;13.27;;;27.20;1.00;;;;;;4988789;28;20802;-68
2022/06/17 12:53:51;;;;;;;14.17;13.47;;;27.20;1.00;;;;;;4989093;28;20783;-68
2022/06/17 12:56:35;;;;;;;13.90;13.10;;;27.20;1.00;;;;;;4988696;28;20888;-69
2022/06/17 12:59:12;;;;;;;14.90;14.30;;;27.30;1.00;;;;;;4988397;28;20647;-69
2022/06/17 13:01:56;;;;;;;13.63;13.13;;;27.20;1.00;;;;;;4988704;28;20762;-68
2022/06/17 13:04:33;;;;;;;13.60;13.10;;;27.10;1.00;;;;;;4988981;28;20910;-68
2022/06/17 13:07:21;;;;;;;13.50;13.00;;;27.20;1.00;;;;;;4991310;28;20430;-69
2022/06/17 13:13:33;;;;;;;14.03;13.53;;;27.10;1.00;;;;;;4992014;28;20407;-67
2022/06/17 13:16:02;;;;;;;13.50;13.00;;;27.10;1.00;;;;;;4992042;28;20435;-68
2022/06/17 13:18:52;;;;;;;13.73;13.23;;;27.30;1.00;;;;;;4991947;28;20459;-68
2022/06/17 13:21:30;;;;;;;13.93;13.33;;;27.20;1.00;;;;;;4961225;28;20463;-68
2022/06/17 13:24:11;;;;;;;14.07;13.57;;;27.10;1.00;;;;;;4991832;28;20459;-68
2022/06/17 13:26:54;;;;;;;13.80;13.30;;;27.30;1.00;;;;;;4991632;28;20439;-68